Historyczne dane pomiarowe

Dodano dane terminowe – wersja testowa.

Dane z okresu 1951-2019

Wersja bazy: 1.34 [2019-03-16, lista zmian], aktualizacja planowana na 2019-04-15

Dane meteo z obszaru Polski uzyskane na podstawie danych udostępnionych przez Instytut Meteorologii i Gospodarki Wodnej – Państwowy Instytut Badawczy.

 

Wybierz Datę:    

       

TemperaturaWilgotnośćWiatrCiśnienieOpadyŚniegCzas trwania zjawisk
 Stacja t tx tn tng RH VA  wxwx mslp ppp RRR   cm mm wxwxwxwxwxwxwx
1999-08-14 16.0 22.2 10.5 5.3 61.8- 0.0 3.0---- 0.0------------
1999-08-13 14.0 19.2 9.9 6.5 72.8- 5.7 3.0---- 0.0------------
1999-08-12 14.8 19.2 11.9 8.9 79.3- 5.7 3.7---- 0.0------------
1999-08-11 18.2 23.6 14.1 9.7 77.0- 4.3 3.7---- 4.3------------
1999-08-10 18.8 21.4 14.4 10.4 90.0- 7.3 2.7---- 2.2------------
1999-08-09 21.5 29.8 17.4 14.7 73.5- 4.3 2.7---- 0.9------------
1999-08-08 21.8 29.2 17.1 13.3 73.8- 3.7 3.0---- 0.0------------
1999-08-07 21.0 29.8 13.1 9.4 69.3- 4.0 3.0---- 0.0------------
1999-08-06 21.0 27.2 16.0 14.1 70.5- 4.0 2.7---- 0.0------------
1999-08-05 18.1 26.6 9.3 6.0 60.8- 2.7 2.0---- 0.6------------
1999-08-04 18.4 26.0 10.3 4.8 65.5- 1.0 0.7---- 0.0------------
1999-08-03 17.8 25.1 9.7 5.3 66.3- 2.3 1.0---- 0.0------------
1999-08-02 16.6 25.0 10.2 5.9 80.0- 4.7 2.0---- 0.0------------
1999-08-01 19.0 26.2 12.4 5.8 67.8- 2.0 3.0---- 0.0------------
1999-07-31 18.4 26.0 10.0 5.7 64.0- 1.0 3.0---- 0.0------------
1999-07-30 17.7 25.2 9.7 5.2 70.0- 1.7 2.7---- 0.0------------
1999-07-29 17.0 23.9 10.7 6.1 77.3- 2.0 2.0---- 0.0------------
1999-07-28 17.7 24.6 11.1 7.4 77.8- 0.0 2.0---- 0.0------------
1999-07-27 18.1 23.2 15.2 14.0 81.8- 2.7 3.0---- 0.0------------
1999-07-26 20.0 27.2 10.6 7.0 75.3- 0.0 2.7---- 0.7------------
1999-07-25 17.7 25.5 8.1 1.7 74.5- 0.7 2.0---- 0.0------------
1999-07-24 16.1 20.6 13.6 9.1 85.5- 4.0 2.0---- 0.0------------
1999-07-23 15.6 19.6 13.1 11.6 83.0- 7.3 2.0---- 0.0------------
1999-07-22 18.3 23.0 14.6 10.8 77.8- 2.7 3.7---- 0.0------------
1999-07-21 20.7 29.1 12.4 11.8 76.0- 4.7 3.7---- 2.4------------
1999-07-20 21.4 30.4 12.8 9.1 64.5- 0.7 2.7---- 0.3------------
1999-07-19 19.8 28.8 9.7 8.6 65.3- 0.3 1.7---- 0.0------------
1999-07-18 18.8 26.8 10.1 5.9 69.0- 0.7 3.0---- 0.0------------
1999-07-17 17.2 24.5 9.8 5.7 75.8- 1.0 2.0---- 0.0------------
1999-07-16 15.7 21.2 11.1 6.6 80.0- 4.7 2.7---- 0.0------------
1999-07-15 16.3 20.2 13.6 12.9 79.0- 5.0 3.7---- 0.0------------
1999-07-14 20.1 26.4 16.3 15.3 82.8- 4.0 3.0---- 12.3------------
1999-07-13 21.3 28.0 16.0 13.1 84.8- 4.3 2.7---- 0.3------------
1999-07-12 21.0 28.2 15.5 12.1 82.0- 3.0 3.0---- 3.9------------
1999-07-11 19.8 24.5 16.3 11.6 76.0- 2.7 3.7---- 0.0------------
1999-07-10 20.9 25.4 17.0 13.3 71.8- 1.7 3.7---- 0.0------------
1999-07-09 18.4 22.0 15.6 13.8 92.3- 8.0 2.0---- 0.0------------
1999-07-08 16.0 17.5 14.8 14.3 98.5- 8.0 3.0---- 4.1------------
1999-07-07 19.0 23.4 16.9 15.8 96.0- 8.0 3.0---- 13.4------------
1999-07-06 24.4 31.0 18.8 14.8 72.0- 2.3 3.0---- 3.0------------
1999-07-05 24.2 30.6 16.5 14.2 66.0- 0.0 2.7---- 0.0------------
1999-07-04 21.7 31.2 12.4 8.1 72.0- 0.0 2.0---- 0.0------------
1999-07-03 19.6 25.5 12.2 7.1 79.0- 1.3 0.7---- 0.0------------
1999-07-02 19.1 24.7 13.6 8.9 82.3- 3.0 2.3---- 0.1------------
1999-07-01 17.6 24.2 10.3 8.4 94.0- 4.0 2.7---- 4.5------------
1999-06-30 19.7 25.4 10.6 6.6 59.8- 2.0 1.7---- 0.0------------
1999-06-29 17.8 22.8 13.1 9.1 72.0- 0.7 3.0---- 0.0------------
1999-06-28 18.9 27.4 11.8 10.4 80.8- 3.0 3.0---- 10.5------------
1999-06-27 19.4 26.2 12.1 8.1 66.0- 1.0 4.3---- 2.3------------
1999-06-26 15.8 22.6 9.1 7.1 82.8- 2.0 3.0---- 0.0------------
1999-06-25 12.1 18.4 4.0 -1.2 83.0- 6.0 2.0---- 5.0------------
1999-06-24 11.7 16.6 3.5 -1.2 77.5- 3.0 1.0---- 0.0------------
1999-06-23 11.4 14.3 7.8 6.1 90.5- 6.0 3.3---- 0.2------------
1999-06-22 9.9 12.7 8.6 6.6 97.8- 8.0 7.0---- 25.8------------
1999-06-21 15.7 21.6 12.2 8.6 85.8- 5.3 2.7---- 17.9------------
1999-06-20 17.1 23.2 11.6 6.6 87.5- 5.3 1.0---- 0.2------------
1999-06-19 15.2 17.6 12.6 12.1 95.8- 7.7 1.7---- 0.7------------
1999-06-18 15.9 17.6 14.6 9.6 98.5- 8.0 2.7---- 26.4------------
1999-06-17 17.9 21.4 15.7 15.0 92.5- 7.7 3.3---- 1.3------------
1999-06-16 16.0 18.4 13.4 12.9 93.5- 8.0 3.0---- 0.1------------
2030.7 ms

 

Źródłem pochodzenia danych jest Instytut Meteorologii i Gospodarki Wodnej – Państwowy Instytut Badawczy. Dane Instytutu Meteorologii i Gospodarki Wodnej – Państwowego Instytutu Badawczego zostały przetworzone.

Dane źródłowe można odnaleźć na stronie https://dane.imgw.pl